Time;durP1;ratioP1;P1;durP2;ratioP2;P2;SDS_P1;SDS_P2;PMS_P1;PMS_P2;Temp;Humidity;BMP_temperature;BMP_pressure;BME280_temperature;BME280_humidity;BME280_pressure;Samples;Min_cycle;Max_cycle;Signal;HPM_P1;HPM_P2
2022/02/05 00:02:58;;;;;;;322.33;146.10;;;;;;;0.31;59.89;95104.56;4965792;28;20506;-78
2022/02/05 00:05:35;;;;;;;234.98;110.22;;;;;;;0.28;59.74;95102.34;4980633;28;20110;-78
2022/02/05 00:11:05;;;;;;;306.92;141.50;;;;;;;0.29;58.99;95112.41;4978234;28;20046;-78
2022/02/05 00:42:56;;;;;;;230.57;110.05;;;;;;;-0.08;59.76;95123.13;4969963;28;20166;-78
2022/02/05 00:45:22;;;;;;;264.17;116.93;;;;;;;-0.07;59.50;95121.38;5203258;23;20495;-78
2022/02/05 00:47:48;;;;;;;312.98;131.98;;;;;;;-0.06;59.65;95110.97;4999832;28;20069;-78
2022/02/05 00:50:19;;;;;;;294.17;125.95;;;;;;;-0.08;59.26;95118.00;4988229;28;20042;-78
2022/02/05 00:52:56;;;;;;;350.58;142.20;;;;;;;-0.22;59.35;95108.41;4973798;28;20042;-78
2022/02/05 00:55:28;;;;;;;281.98;119.78;;;;;;;-0.14;59.69;95112.75;4961406;28;20062;-78
2022/02/05 00:57:53;;;;;;;288.50;118.65;;;;;;;-0.25;60.07;95106.19;4975140;28;20046;-78
2022/02/05 01:00:19;;;;;;;225.75;95.47;;;;;;;-0.15;60.65;95111.16;5007292;28;20410;-79
2022/02/05 01:02:44;;;;;;;248.32;111.88;;;;;;;-0.18;59.85;95111.44;4991410;28;20054;-78
2022/02/05 01:05:10;;;;;;;226.88;105.57;;;;;;;-0.19;59.50;95105.53;4991045;28;20022;-79
2022/02/05 01:07:37;;;;;;;226.05;104.57;;;;;;;-0.22;60.45;95105.84;4991447;28;20038;-78
2022/02/05 01:10:03;;;;;;;242.00;110.55;;;;;;;-0.26;59.75;95101.22;4981835;28;20038;-78
2022/02/05 01:12:31;;;;;;;247.40;108.07;;;;;;;-0.24;59.69;95102.66;4988380;28;20217;-78
2022/02/05 01:14:59;;;;;;;184.07;85.88;;;;;;;-0.26;59.78;95102.03;4991611;28;20521;-78
2022/02/05 01:17:34;;;;;;;249.35;109.88;;;;;;;-0.29;59.98;95099.00;4973533;28;20077;-78
2022/02/05 01:22:26;;;;;;;283.35;120.07;;;;;;;-0.27;59.68;95094.53;4974455;28;20038;-78
2022/02/05 01:24:53;;;;;;;226.05;98.60;;;;;;;-0.24;58.90;95084.78;4992560;28;20038;-78
2022/02/05 01:27:36;;;;;;;208.43;92.85;;;;;;;-0.20;59.56;95088.59;5021080;28;20039;-78
2022/02/05 01:32:36;;;;;;;176.65;80.93;;;;;;;-0.32;59.81;95083.03;4990849;28;19928;-78
2022/02/05 01:35:18;;;;;;;194.73;88.63;;;;;;;-0.46;60.03;95075.97;4993027;28;20089;-77
2022/02/05 01:54:28;;;;;;;180.10;85.35;;;;;;;-0.49;59.45;95075.47;4993723;28;20065;-78
2022/02/05 01:57:01;;;;;;;165.43;80.70;;;;;;;-0.52;59.93;95080.91;4994555;28;20049;-78
2022/02/05 02:15:36;;;;;;;125.60;60.70;;;;;;;-0.71;60.22;95074.31;4992178;28;20033;-78
2022/02/05 02:18:18;;;;;;;122.28;57.72;;;;;;;-0.64;60.48;95071.00;4993565;28;20643;-77
2022/02/05 02:21:08;;;;;;;106.73;58.17;;;;;;;-0.65;60.25;95068.59;4999606;22;20100;-78
2022/02/05 02:26:12;;;;;;;110.07;55.72;;;;;;;-0.62;59.69;95069.09;4966230;28;20033;-78
2022/02/05 02:31:26;;;;;;;106.25;55.13;;;;;;;-0.83;61.48;95071.25;4974800;28;20043;-77
2022/02/05 02:33:55;;;;;;;117.40;55.78;;;;;;;-0.81;61.28;95079.56;4965149;28;20049;-78
2022/02/05 02:36:43;;;;;;;105.03;53.95;;;;;;;-0.77;60.80;95080.84;4982901;28;20058;-78
2022/02/05 02:39:16;;;;;;;115.15;55.22;;;;;;;-0.81;60.44;95068.56;4982183;28;20042;-78
2022/02/05 02:41:50;;;;;;;108.78;54.60;;;;;;;-0.77;60.25;95080.06;4966637;28;20043;-78
2022/02/05 02:44:16;;;;;;;117.43;56.38;;;;;;;-0.74;60.07;95080.53;4988341;28;20153;-78
2022/02/05 02:46:41;;;;;;;115.07;59.50;;;;;;;-0.77;59.88;95083.41;4933255;28;20030;-78
2022/02/05 02:49:10;;;;;;;118.03;60.05;;;;;;;-0.73;59.91;95079.59;4948879;28;20039;-78
2022/02/05 02:57:23;;;;;;;162.27;94.78;;;;;;;-0.74;60.07;95084.84;4968057;28;20046;-77
2022/02/05 02:59:59;;;;;;;175.10;98.30;;;;;;;-0.81;60.68;95079.56;4964529;28;20174;-78
2022/02/05 03:02:26;;;;;;;207.25;128.45;;;;;;;-0.75;59.12;95086.59;4982436;28;20043;-78
2022/02/05 03:04:54;;;;;;;252.32;148.07;;;;;;;-0.77;59.68;95083.41;4964398;28;20437;-78
2022/02/05 03:07:23;;;;;;;255.55;148.43;;;;;;;-0.79;59.98;95087.88;4932293;28;20041;-78
2022/02/05 03:09:50;;;;;;;212.57;123.88;;;;;;;-0.77;59.76;95085.97;4981844;28;20135;-78
2022/02/05 03:12:20;;;;;;;187.63;105.40;;;;;;;-0.76;60.28;95081.66;4966071;28;20093;-77
2022/02/05 03:15:20;;;;;;;159.60;87.13;;;;;;;-0.87;60.45;95087.03;5122477;23;20049;31
2022/02/05 03:18:03;;;;;;;152.13;83.93;;;;;;;-0.88;60.62;95091.34;4917827;29;20203;-77
2022/02/05 03:20:28;;;;;;;182.88;96.13;;;;;;;-0.79;60.16;95087.88;4923774;29;20132;-79
2022/02/05 03:22:54;;;;;;;208.70;111.88;;;;;;;-0.86;60.72;95091.97;4919715;29;20052;-79
2022/02/05 03:25:20;;;;;;;236.80;121.00;;;;;;;-0.78;61.28;95093.78;4935919;29;20028;-78
2022/02/05 03:27:45;;;;;;;242.60;124.05;;;;;;;-0.84;60.09;95079.88;4977809;23;20047;-78
2022/02/05 03:30:11;;;;;;;227.93;118.88;;;;;;;-0.79;60.43;95087.88;4970405;28;20507;-78
2022/02/05 03:32:37;;;;;;;220.88;114.07;;;;;;;-0.84;60.49;95081.63;4945748;28;20520;-78
2022/02/05 03:35:02;;;;;;;221.60;109.95;;;;;;;-0.81;60.47;95091.53;4963555;28;20049;-78
2022/02/05 03:37:28;;;;;;;231.68;107.57;;;;;;;-0.83;60.06;95086.56;4929941;28;20031;-78
2022/02/05 03:39:53;;;;;;;246.18;111.22;;;;;;;-0.87;60.67;95085.28;4946677;28;20039;-78
2022/02/05 03:42:19;;;;;;;297.83;133.55;;;;;;;-0.82;59.77;95098.38;4946381;28;20554;-78
2022/02/05 03:44:44;;;;;;;325.48;142.82;;;;;;;-0.87;59.24;95100.59;4930548;28;20042;-78
2022/02/05 03:47:09;;;;;;;245.95;114.30;;;;;;;-0.85;59.82;95096.13;4962889;28;20035;-78
2022/02/05 03:49:35;;;;;;;154.80;77.60;;;;;;;-0.82;59.58;95100.94;4946819;28;20035;-78
2022/02/05 03:52:00;;;;;;;157.48;77.97;;;;;;;-0.83;61.24;95107.00;4930557;28;20430;-78
2022/02/05 03:54:29;;;;;;;139.43;73.30;;;;;;;-0.88;60.58;95111.78;4945368;28;20066;-78
2022/02/05 03:56:54;;;;;;;148.65;68.47;;;;;;;-0.84;60.53;95107.94;4936056;28;20458;-78
2022/02/05 03:59:20;;;;;;;129.25;65.90;;;;;;;-0.78;60.20;95109.09;4950342;28;20042;-78
2022/02/05 04:01:45;;;;;;;122.55;53.63;;;;;;;-0.78;60.12;95099.69;4962050;28;20039;-78
2022/02/05 04:04:11;;;;;;;93.43;51.25;;;;;;;-0.78;59.73;95115.00;4959992;28;20067;-78
2022/02/05 04:06:36;;;;;;;78.97;39.20;;;;;;;-0.81;59.27;95110.22;4944076;28;20031;-77
2022/02/05 04:09:06;;;;;;;72.13;39.33;;;;;;;-0.88;59.13;95113.53;4944928;28;20039;-78
2022/02/05 04:11:38;;;;;;;99.93;45.40;;;;;;;-0.95;59.42;95113.34;4962378;28;20037;-77
2022/02/05 04:16:48;;;;;;;107.50;52.03;;;;;;;-1.09;59.99;95117.28;4934457;28;20282;-78
2022/02/05 04:19:13;;;;;;;92.22;49.30;;;;;;;-1.07;60.18;95122.22;4944411;28;20499;-78
2022/02/05 04:21:39;;;;;;;108.88;49.30;;;;;;;-1.01;60.23;95119.84;4914193;28;20042;-78
2022/02/05 04:24:05;;;;;;;102.20;46.97;;;;;;;-0.97;60.47;95120.38;4945545;28;20042;-78
2022/02/05 04:26:30;;;;;;;95.35;45.10;;;;;;;-1.01;60.33;95121.59;4945217;28;20039;-78
2022/02/05 04:28:56;;;;;;;91.65;45.55;;;;;;;-0.93;59.86;95111.44;4962626;28;20049;-79
2022/02/05 04:31:22;;;;;;;95.15;49.28;;;;;;;-0.90;59.67;95126.44;4926683;23;20051;-78
2022/02/05 04:33:47;;;;;;;125.85;62.53;;;;;;;-0.91;60.18;95127.41;4934358;29;20053;-78
2022/02/05 04:36:13;;;;;;;126.82;68.00;;;;;;;-0.89;59.43;95117.81;4934485;29;20067;-78
2022/02/05 04:38:41;;;;;;;113.15;60.78;;;;;;;-0.86;59.00;95106.50;4901578;29;20120;-78
2022/02/05 04:41:16;;;;;;;99.93;49.83;;;;;;;-0.80;59.25;95111.81;4913477;29;20040;-78
2022/02/05 04:44:00;;;;;;;105.25;55.13;;;;;;;-0.76;59.62;95110.53;4932827;29;20034;-77
2022/02/05 04:51:51;;;;;;;121.72;57.58;;;;;;;-0.67;60.16;95104.50;4916321;29;20501;-77
2022/02/05 05:00:11;;;;;;;114.38;55.15;;;;;;;-0.56;59.63;95107.72;4925118;29;20054;-79
2022/02/05 05:07:54;;;;;;;114.32;57.20;;;;;;;-0.33;59.04;95109.53;4919427;29;20048;-79
2022/02/05 05:12:59;;;;;;;129.23;63.22;;;;;;;-0.19;59.39;95114.97;4921574;29;20119;-79
2022/02/05 05:20:34;;;;;;;143.68;68.22;;;;;;;0.08;58.27;95121.53;4935623;29;20094;-78
2022/02/05 05:23:00;;;;;;;139.52;70.45;;;;;;;0.07;58.64;95114.84;4920312;29;20043;-79
2022/02/05 05:25:25;;;;;;;142.20;70.82;;;;;;;0.04;59.42;95120.28;4937400;29;20042;-78
2022/02/05 05:27:51;;;;;;;124.22;64.78;;;;;;;0.07;59.28;95114.84;4920050;29;20111;-79
2022/02/05 05:30:16;;;;;;;113.75;60.67;;;;;;;0.01;59.58;95111.16;4889300;29;20047;-79
2022/02/05 05:32:42;;;;;;;124.55;61.63;;;;;;;0.07;59.40;95117.38;4915504;24;20039;-78
2022/02/05 05:35:08;;;;;;;133.60;65.25;;;;;;;0.02;60.12;95124.75;4928909;29;20052;-78
2022/02/05 05:37:33;;;;;;;132.13;60.17;;;;;;;0.02;59.37;95123.00;4927870;29;20032;-78
2022/02/05 05:39:59;;;;;;;130.05;65.90;;;;;;;0.01;59.59;95130.81;4926239;29;20040;-78
2022/02/05 05:42:29;;;;;;;132.43;64.70;;;;;;;0.01;60.22;95130.81;4917422;29;20496;-78
2022/02/05 05:52:16;;;;;;;142.63;73.05;;;;;;;0.12;58.71;95127.94;4926954;29;20044;-78
2022/02/05 05:54:58;;;;;;;153.57;75.45;;;;;;;0.15;58.49;95137.81;4927607;29;20031;-78
2022/02/05 05:57:24;;;;;;;214.52;101.72;;;;;;;0.10;58.83;95140.06;4926558;29;20179;-78
2022/02/05 05:59:49;;;;;;;229.95;118.72;;;;;;;-0.06;58.28;95138.31;4927949;29;20127;-78
2022/02/05 06:02:15;;;;;;;205.05;106.32;;;;;;;-0.01;58.21;95146.28;4924901;29;20036;-77
2022/02/05 06:04:40;;;;;;;168.52;88.78;;;;;;;-0.09;57.76;95147.09;4933587;29;20039;-78
2022/02/05 06:07:06;;;;;;;162.65;86.72;;;;;;;-0.01;57.30;95146.28;4909874;29;20040;-77
2022/02/05 06:09:34;;;;;;;145.02;81.78;;;;;;;0.04;57.99;95150.94;4915617;29;20473;-77
2022/02/05 06:11:59;;;;;;;152.55;83.70;;;;;;;0.06;58.17;95154.13;4916442;29;20031;-77
2022/02/05 06:14:27;;;;;;;153.43;80.22;;;;;;;0.13;58.15;95150.78;4925734;29;20040;-77
2022/02/05 06:16:59;;;;;;;157.45;84.45;;;;;;;0.28;57.34;95153.50;4893828;29;20031;-77
2022/02/05 06:19:24;;;;;;;171.30;78.57;;;;;;;0.31;57.45;95158.28;4923971;29;20051;-77
2022/02/05 06:21:50;;;;;;;128.48;70.53;;;;;;;0.54;57.48;95159.25;4923017;29;20036;-77
2022/02/05 06:24:15;;;;;;;134.32;68.75;;;;;;;0.73;56.65;95160.66;4924049;29;20046;-77
2022/02/05 06:26:40;;;;;;;128.75;64.05;;;;;;;0.76;56.25;95165.47;4900325;29;20051;-77
2022/02/05 06:29:06;;;;;;;134.27;65.53;;;;;;;0.78;55.80;95157.63;4908846;29;20040;-77
2022/02/05 06:31:31;;;;;;;120.57;60.33;;;;;;;0.98;56.31;95161.44;4924067;29;20400;-77
2022/02/05 06:33:57;;;;;;;117.38;61.20;;;;;;;1.09;55.41;95163.63;4924757;29;20560;-77
2022/02/05 06:36:22;;;;;;;127.18;62.03;;;;;;;1.25;54.89;95167.09;4922995;29;20035;-77
2022/02/05 06:38:48;;;;;;;116.75;61.63;;;;;;;1.19;54.83;95171.94;4923185;29;20039;-77
2022/02/05 06:41:14;;;;;;;129.07;62.97;;;;;;;1.28;54.20;95166.75;4924283;29;20153;-76
2022/02/05 06:43:39;;;;;;;127.45;62.28;;;;;;;1.58;53.62;95172.88;4922040;29;20065;-76
2022/02/05 06:46:05;;;;;;;135.85;65.60;;;;;;;1.96;53.20;95171.28;4923383;29;20040;-77
2022/02/05 06:48:30;;;;;;;125.40;61.05;;;;;;;2.35;52.00;95164.25;4921784;29;20099;-77
2022/02/05 06:50:55;;;;;;;135.38;62.83;;;;;;;2.61;50.67;95160.53;4924869;29;20052;-77
2022/02/05 06:53:21;;;;;;;129.20;64.32;;;;;;;2.73;50.45;95164.25;4923117;29;20048;-76
2022/02/05 06:55:46;;;;;;;125.10;62.53;;;;;;;2.89;50.03;95176.94;4924001;29;20047;-77
2022/02/05 06:58:12;;;;;;;122.78;62.80;;;;;;;3.00;49.68;95170.56;4924073;29;20040;-76
2022/02/05 07:00:38;;;;;;;129.25;65.93;;;;;;;3.13;49.54;95162.25;4923680;29;20120;-77
2022/02/05 07:03:04;;;;;;;128.05;66.50;;;;;;;3.23;50.25;95157.63;4924953;29;20131;-77
2022/02/05 07:05:29;;;;;;;126.63;66.30;;;;;;;3.42;49.39;95159.69;4922259;29;20435;-77
2022/02/05 07:07:55;;;;;;;151.52;76.20;;;;;;;3.57;49.57;95155.31;4906916;29;20047;-77
2022/02/05 07:10:20;;;;;;;138.02;76.00;;;;;;;3.80;49.01;95159.53;4923253;29;20060;-76
2022/02/05 07:15:27;;;;;;;122.47;66.00;;;;;;;4.17;48.40;95169.63;4909515;29;20036;-77
2022/02/05 07:20:44;;;;;;;116.57;65.35;;;;;;;4.59;47.17;95173.19;4913677;29;20090;-79
2022/02/05 07:31:25;;;;;;;138.90;71.38;;;;;;;5.27;45.43;95178.59;4925267;29;20063;-78
2022/02/05 07:33:51;;;;;;;131.23;70.20;;;;;;;5.42;44.28;95177.50;4926141;29;20492;-78
2022/02/05 07:36:17;;;;;;;127.32;70.10;;;;;;;5.54;44.33;95176.97;4912369;29;20051;-78
2022/02/05 07:38:43;;;;;;;116.78;65.20;;;;;;;5.72;44.70;95174.66;4926013;29;20060;-79
2022/02/05 07:41:09;;;;;;;126.38;68.30;;;;;;;5.92;43.55;95169.59;4918997;29;20040;-78
2022/02/05 07:43:35;;;;;;;125.88;68.13;;;;;;;6.06;43.36;95175.59;4910854;29;20095;-78
2022/02/05 07:46:04;;;;;;;128.43;67.63;;;;;;;6.10;42.72;95169.06;4925501;29;20047;-78
2022/02/05 07:48:30;;;;;;;131.70;66.43;;;;;;;6.21;43.42;95169.28;4922963;29;20028;-78
2022/02/05 07:50:56;;;;;;;129.50;68.22;;;;;;;6.42;43.30;95170.91;4926731;29;20040;-78
2022/02/05 07:53:22;;;;;;;118.45;67.78;;;;;;;6.54;42.93;95158.22;4928010;29;20036;-78
2022/02/05 07:55:48;;;;;;;126.20;68.65;;;;;;;6.48;42.31;95175.28;4930472;29;20050;-77
2022/02/05 07:58:14;;;;;;;118.78;65.90;;;;;;;6.46;42.43;95187.59;4937523;29;20039;-80
2022/02/05 08:00:39;;;;;;;122.32;68.50;;;;;;;6.44;42.35;95183.63;4916150;29;20032;-81
2022/02/05 08:03:06;;;;;;;114.78;63.30;;;;;;;6.49;43.33;95187.19;4937152;29;20035;-78
2022/02/05 08:05:31;;;;;;;117.40;66.07;;;;;;;6.63;42.80;95188.00;4918275;29;20509;-78
2022/02/05 08:07:58;;;;;;;121.03;67.43;;;;;;;6.85;43.20;95196.41;4935366;29;20039;-78
2022/02/05 08:10:29;;;;;;;145.45;80.65;;;;;;;7.04;42.03;95194.78;4930299;29;20063;-78
2022/02/05 08:12:57;;;;;;;112.85;61.20;;;;;;;7.18;40.99;95186.81;4926223;29;20036;-78
2022/02/05 08:15:26;;;;;;;112.10;60.83;;;;;;;7.15;40.19;95194.97;4924079;29;20035;-77
2022/02/05 08:17:52;;;;;;;122.68;62.17;;;;;;;7.13;39.82;95184.03;4923083;29;20035;-77
2022/02/05 08:20:17;;;;;;;125.00;61.47;;;;;;;7.09;40.11;95172.50;4922469;29;20047;-77
2022/02/05 08:22:43;;;;;;;110.45;60.92;;;;;;;7.07;39.80;95158.97;4923707;29;20035;-77
2022/02/05 08:25:08;;;;;;;103.07;58.92;;;;;;;7.08;40.01;95154.59;4923542;29;20035;-77
2022/02/05 08:27:35;;;;;;;114.78;60.03;;;;;;;7.04;40.29;95163.75;4922583;29;20931;-77
2022/02/05 08:30:06;;;;;;;114.50;62.28;;;;;;;6.98;39.78;95164.53;4911155;29;20118;-81
2022/02/05 08:32:31;;;;;;;106.45;54.30;;;;;;;6.91;39.25;95160.19;4902985;29;20063;-78
2022/02/05 08:34:59;;;;;;;88.63;50.67;;;;;;;6.83;39.57;95168.16;4926602;29;20046;-77
2022/02/05 08:37:25;;;;;;;121.32;54.15;;;;;;;6.83;39.74;95172.50;4901794;29;20048;-77
2022/02/05 08:39:50;;;;;;;100.18;54.05;;;;;;;6.90;39.94;95158.59;4925065;29;20123;-78
2022/02/05 08:42:16;;;;;;;95.65;52.97;;;;;;;6.99;40.59;95154.00;4907649;29;20038;-78
2022/02/05 08:44:41;;;;;;;101.20;51.67;;;;;;;7.11;39.45;95149.81;4927470;29;20035;-78
2022/02/05 08:47:07;;;;;;;117.57;55.83;;;;;;;7.13;39.69;95162.53;4910851;29;20047;-77
2022/02/05 08:49:32;;;;;;;101.38;56.03;;;;;;;7.16;39.73;95168.13;4924572;29;20044;-78
2022/02/05 08:52:00;;;;;;;90.85;52.28;;;;;;;7.04;39.46;95172.31;4923189;29;20036;-76
2022/02/05 08:54:27;;;;;;;103.57;55.72;;;;;;;7.08;39.91;95176.09;4907331;29;20031;-77
2022/02/05 08:56:53;;;;;;;114.00;55.67;;;;;;;7.14;40.39;95183.03;4909322;29;20042;-77
2022/02/05 08:59:20;;;;;;;101.05;54.10;;;;;;;7.28;40.04;95180.44;4922097;29;20674;-76
2022/02/05 09:01:56;;;;;;;103.53;53.92;;;;;;;7.35;40.47;95182.03;4905187;29;20133;-77
2022/02/05 09:04:31;;;;;;;108.93;54.30;;;;;;;7.44;39.89;95185.16;4922467;29;20050;-77
2022/02/05 09:06:59;;;;;;;100.82;55.17;;;;;;;7.47;39.76;95190.72;4922163;29;20047;-76
2022/02/05 09:16:51;;;;;;;99.07;57.75;;;;;;;6.77;41.54;95181.06;4922681;29;20096;-76
2022/02/05 09:19:16;;;;;;;112.30;62.22;;;;;;;6.82;41.78;95183.84;4906003;29;20027;-77
2022/02/05 09:21:42;;;;;;;106.38;60.00;;;;;;;6.94;40.91;95190.00;4922779;29;20397;-78
2022/02/05 09:24:08;;;;;;;116.35;58.47;;;;;;;7.05;41.37;95189.41;4922974;29;20035;-76
2022/02/05 09:26:39;;;;;;;115.88;59.60;;;;;;;7.17;40.62;95180.06;4923190;29;20046;-77
2022/02/05 09:29:12;;;;;;;98.40;55.23;;;;;;;7.35;40.12;95181.22;4909744;29;20028;-77
2022/02/05 09:31:38;;;;;;;114.22;61.65;;;;;;;7.49;40.36;95173.22;4892764;29;20457;-77
2022/02/05 09:34:05;;;;;;;130.55;67.15;;;;;;;7.62;40.95;95172.38;4906167;29;20043;-75
2022/02/05 09:36:31;;;;;;;123.50;64.13;;;;;;;7.71;40.60;95165.19;4899238;29;20036;-77
2022/02/05 09:38:56;;;;;;;119.75;63.25;;;;;;;7.82;39.44;95160.19;4906473;29;20032;-76
2022/02/05 09:41:23;;;;;;;113.00;63.45;;;;;;;7.94;39.27;95154.31;4920142;29;20040;-76
2022/02/05 09:43:48;;;;;;;122.93;64.55;;;;;;;7.95;38.86;95148.16;4905874;29;20164;-76
2022/02/05 09:46:15;;;;;;;118.28;65.15;;;;;;;8.05;39.13;95140.72;4923301;29;20041;-78
2022/02/05 09:48:41;;;;;;;123.10;65.38;;;;;;;8.13;38.85;95143.06;4921834;29;20523;-77
2022/02/05 09:51:15;;;;;;;128.05;62.70;;;;;;;8.24;38.40;95129.47;4905713;29;20035;-76
2022/02/05 09:53:47;;;;;;;129.70;62.58;;;;;;;8.27;38.88;95131.63;4907926;29;20052;-76
2022/02/05 09:56:13;;;;;;;;;;;;;;;8.38;38.28;95125.81;4909355;29;20163;-76
2022/02/05 09:58:38;;;;;;;109.88;57.80;;;;;;;8.40;38.72;95123.81;4925270;29;20650;-80
2022/02/05 10:01:09;;;;;;;113.05;59.70;;;;;;;8.49;37.82;95126.16;4923354;29;20441;-75
2022/02/05 10:03:35;;;;;;;107.72;54.67;;;;;;;8.50;37.77;95123.34;4924700;29;20110;-76
2022/02/05 10:06:09;;;;;;;110.45;57.78;;;;;;;8.58;37.40;95119.69;4916736;29;20055;-77
2022/02/05 10:08:36;;;;;;;87.93;45.58;;;;;;;8.65;36.84;95110.88;4925735;29;20063;-77
2022/02/05 10:11:08;;;;;;;106.30;59.13;;;;;;;8.67;37.55;95115.84;4908898;29;20044;-76
2022/02/05 10:13:38;;;;;;;101.87;57.70;;;;;;;8.68;38.15;95120.00;4926438;29;20060;-76
2022/02/05 10:16:04;;;;;;;121.32;57.45;;;;;;;8.73;37.86;95112.38;4924614;29;20140;-76
2022/02/05 10:18:37;;;;;;;102.10;53.03;;;;;;;8.77;37.20;95110.94;4925883;29;20074;-75
2022/02/05 10:21:18;;;;;;;85.95;45.53;;;;;;;8.77;36.92;95108.34;4924842;29;20122;-76
2022/02/05 10:23:55;;;;;;;90.82;43.95;;;;;;;8.77;36.71;95103.16;4924602;29;20047;-76
2022/02/05 10:26:50;;;;;;;86.18;42.42;;;;;;;8.72;36.56;95110.81;4909359;29;20071;-77
2022/02/05 10:29:17;;;;;;;93.60;50.28;;;;;;;8.50;37.21;95112.97;4913213;29;20044;-75
2022/02/05 10:34:47;;;;;;;107.78;52.17;;;;;;;8.46;37.62;95108.41;4924149;29;20077;-76
2022/02/05 10:37:20;;;;;;;99.53;50.35;;;;;;;8.57;38.03;95112.91;4908333;29;20040;-76
2022/02/05 10:40:21;;;;;;;102.43;53.25;;;;;;;8.61;37.96;95114.06;4922730;29;20044;-77
2022/02/05 10:45:15;;;;;;;94.22;49.50;;;;;;;8.78;38.04;95104.75;4923523;29;20074;-76
2022/02/05 10:47:47;;;;;;;97.93;51.05;;;;;;;8.88;37.81;95105.06;4908213;29;20075;-77
2022/02/05 10:50:19;;;;;;;92.72;48.92;;;;;;;8.98;37.49;95110.56;4923408;29;20060;-76
2022/02/05 10:52:48;;;;;;;97.70;51.08;;;;;;;9.05;37.46;95105.31;4908505;29;20036;-76
2022/02/05 10:55:25;;;;;;;88.85;49.17;;;;;;;9.13;36.96;95102.44;4924343;29;20036;-77
2022/02/05 11:08:07;;;;;;;90.10;47.85;;;;;;;9.51;37.06;95067.69;4927089;29;20056;-78
2022/02/05 11:18:55;;;;;;;92.72;52.45;;;;;;;9.99;36.72;95070.25;4916438;29;20401;-77
2022/02/05 11:21:22;;;;;;;121.45;58.80;;;;;;;10.10;36.19;95072.09;4922214;29;20059;-77
2022/02/05 11:23:53;;;;;;;102.88;56.15;;;;;;;10.22;36.94;95070.34;4920793;29;20059;-76
2022/02/05 11:26:20;;;;;;;100.70;54.47;;;;;;;10.34;35.69;95072.97;4904143;29;20112;-76
2022/02/05 11:28:50;;;;;;;111.15;51.78;;;;;;;10.38;35.38;95070.69;4922913;29;20027;-77
2022/02/05 11:31:15;;;;;;;108.35;53.15;;;;;;;10.49;34.84;95077.75;4923145;29;20040;-76
2022/02/05 11:33:42;;;;;;;110.10;55.35;;;;;;;10.63;35.04;95071.31;4928042;29;20035;-77
2022/02/05 11:38:42;;;;;;;109.90;55.50;;;;;;;10.94;35.09;95079.81;4922723;29;20036;-77
2022/02/05 11:41:22;;;;;;;102.38;51.15;;;;;;;11.02;34.04;95071.63;4921867;29;20050;-76
2022/02/05 11:43:48;;;;;;;103.15;51.55;;;;;;;11.09;34.84;95069.72;4905930;29;20046;-76
2022/02/05 11:46:14;;;;;;;101.47;47.95;;;;;;;11.14;33.97;95072.44;4906356;29;20040;-76
2022/02/05 11:48:55;;;;;;;93.15;45.47;;;;;;;11.18;34.33;95060.53;4921223;29;20051;-76
2022/02/05 11:51:30;;;;;;;80.70;37.72;;;;;;;11.03;33.65;95055.78;4916607;29;20132;-78
2022/02/05 11:53:56;;;;;;;72.72;36.03;;;;;;;11.03;34.42;95061.00;4925692;29;20048;-76
2022/02/05 11:56:22;;;;;;;61.45;28.92;;;;;;;11.08;34.21;95052.53;4924937;29;20044;-77
2022/02/05 11:59:00;;;;;;;64.88;29.60;;;;;;;11.19;33.88;95053.50;4922673;29;20028;-76
2022/02/05 12:01:38;;;;;;;58.95;29.23;;;;;;;11.31;33.50;95059.50;4923079;29;20698;-78
2022/02/05 12:04:14;;;;;;;62.33;27.02;;;;;;;11.42;33.93;95051.66;4922201;29;20427;-77
2022/02/05 12:06:47;;;;;;;68.72;30.70;;;;;;;11.58;33.35;95042.34;4925477;29;20071;-82
2022/02/05 12:09:45;;;;;;;58.90;29.05;;;;;;;11.74;33.61;95043.41;4913577;29;20033;-81
2022/02/05 12:12:23;;;;;;;67.63;28.80;;;;;;;11.91;33.31;95041.66;4912784;29;20056;-81
2022/02/05 12:15:07;;;;;;;63.05;27.40;;;;;;;12.08;33.22;95051.31;4928991;29;20028;-82
2022/02/05 12:20:27;;;;;;;39.13;19.92;;;;;;;12.15;33.33;95044.94;4923116;29;20526;-77
2022/02/05 12:25:58;;;;;;;30.08;13.93;;;;;;;12.28;33.97;95042.03;4926241;29;20036;-78
2022/02/05 12:28:33;;;;;;;34.13;13.57;;;;;;;12.24;34.13;95040.13;4925929;29;20091;-78
2022/02/05 12:31:01;;;;;;;36.72;16.38;;;;;;;12.24;34.18;95040.13;4924122;29;20040;-77
2022/02/05 12:33:42;;;;;;;18.60;10.77;;;;;;;12.21;33.82;95041.41;4922351;29;20556;-78
2022/02/05 12:36:08;;;;;;;24.90;12.57;;;;;;;12.27;34.17;95034.44;4915304;29;20030;-77
2022/02/05 12:38:43;;;;;;;21.92;9.38;;;;;;;12.10;33.95;95039.63;4923283;29;20040;-77
2022/02/05 12:41:10;;;;;;;18.75;10.45;;;;;;;12.09;34.42;95045.09;4938723;29;20032;-77
2022/02/05 12:43:50;;;;;;;21.10;12.07;;;;;;;12.10;34.41;95044.84;4905890;29;20067;-77
2022/02/05 12:46:15;;;;;;;22.42;10.00;;;;;;;12.13;34.23;95038.38;4922830;29;20035;-78
2022/02/05 12:48:43;;;;;;;20.60;9.18;;;;;;;12.19;34.42;95033.00;4913994;29;20040;-77
2022/02/05 12:51:08;;;;;;;15.82;9.43;;;;;;;12.16;34.09;95027.47;4922123;29;20036;-77
2022/02/05 12:53:38;;;;;;;15.40;7.65;;;;;;;12.06;34.41;95027.31;4919722;29;20169;-80
2022/02/05 12:56:20;;;;;;;27.67;9.52;;;;;;;12.08;34.72;95025.25;4907042;29;20064;-78
2022/02/05 12:59:02;;;;;;;34.25;11.43;;;;;;;12.18;35.13;95025.41;4921439;29;20067;-76
2022/02/05 13:01:29;;;;;;;18.65;10.60;;;;;;;12.27;35.09;95022.19;4921276;29;20151;-77
2022/02/05 13:04:14;;;;;;;14.63;8.75;;;;;;;12.24;34.83;95024.47;4906237;29;20070;-76
2022/02/05 13:06:39;;;;;;;22.17;9.85;;;;;;;12.15;35.11;95028.50;4937065;29;20031;-76
2022/02/05 13:09:27;;;;;;;25.30;10.40;;;;;;;12.00;35.54;95024.59;4922711;29;20480;-76
2022/02/05 13:11:59;;;;;;;36.20;12.88;;;;;;;11.88;36.03;95021.28;4921843;29;20109;-76
2022/02/05 13:14:36;;;;;;;25.73;12.57;;;;;;;11.67;36.57;95016.69;4919787;29;20028;-77
2022/02/05 13:17:02;;;;;;;13.75;7.82;;;;;;;11.45;37.21;95024.38;4903827;29;20072;-77
2022/02/05 13:19:38;;;;;;;27.90;12.20;;;;;;;11.36;37.48;95023.13;4921593;29;20024;-77
2022/02/05 13:27:27;;;;;;;33.58;13.48;;;;;;;11.31;37.72;95023.84;4924039;29;20044;-78
2022/02/05 13:33:34;;;;;;;38.58;13.43;;;;;;;11.36;38.54;95036.16;4945522;23;20067;-78
2022/02/05 13:35:25;;;;;;;23.38;7.82;;;;;;;11.23;38.58;95044.25;4940146;29;20046;-77
2022/02/05 13:37:55;;;;;;;21.50;8.60;;;;;;;11.19;38.76;95043.88;4936945;29;20035;-77
2022/02/05 13:40:23;;;;;;;17.85;5.95;;;;;;;10.98;39.56;95047.09;4921013;29;20062;-77
2022/02/05 13:42:51;;;;;;;9.38;5.20;;;;;;;10.83;39.35;95061.34;4953332;29;20451;-77
2022/02/05 13:45:42;;;;;;;8.40;4.57;;;;;;;10.66;40.41;95050.06;4953538;28;20039;-77
2022/02/05 13:48:05;;;;;;;10.25;4.28;;;;;;;10.50;40.39;95058.53;4952928;29;20419;-77
2022/02/05 13:50:32;;;;;;;13.00;4.75;;;;;;;10.49;40.31;95056.94;4954351;28;20491;-77
2022/02/05 13:53:02;;;;;;;14.25;4.88;;;;;;;10.49;40.86;95051.75;4936797;29;20039;-77
2022/02/05 13:55:35;;;;;;;22.60;5.15;;;;;;;10.59;40.56;95046.78;4936987;29;20452;-77
2022/02/05 13:58:02;;;;;;;;;;;;;;;10.62;40.11;95048.94;4937207;29;20539;-77
2022/02/05 14:00:44;;;;;;;13.77;6.32;;;;;;;10.50;40.45;95053.31;4970941;23;19922;-77
2022/02/05 14:03:10;;;;;;;14.88;6.85;;;;;;;10.44;41.29;95041.22;4974982;28;20071;-77
2022/02/05 14:05:58;;;;;;;18.38;5.72;;;;;;;10.34;41.08;95043.59;4947347;28;20034;-77
2022/02/05 14:10:59;;;;;;;12.00;5.72;;;;;;;10.09;40.93;95038.56;4994903;23;20469;-78
2022/02/05 14:13:24;;;;;;;14.68;6.53;;;;;;;10.01;41.27;95034.44;4963514;28;20047;-78
2022/02/05 14:15:58;;;;;;;19.33;9.82;;;;;;;9.94;41.70;95044.16;4946272;28;20490;-78
2022/02/05 14:18:23;;;;;;;37.33;16.27;;;;;;;9.91;42.04;95041.97;4945016;28;20019;-78
2022/02/05 14:20:49;;;;;;;37.63;16.70;;;;;;;9.90;41.56;95036.00;4963290;28;20101;-78
2022/02/05 14:23:18;;;;;;;27.98;16.33;;;;;;;9.88;42.41;95034.63;4963917;28;20027;-78
2022/02/05 14:25:59;;;;;;;33.15;18.00;;;;;;;9.88;42.23;95035.44;4948135;28;20407;-78
2022/02/05 14:28:33;;;;;;;23.05;12.27;;;;;;;9.90;41.69;95040.41;4946479;28;20706;-78